Mist, Arkansas
Current Conditions -  °F | °C
As of 5:55 AM on Sunday 21 Dec 2014 (Local Time) from KBQP Reporting Station
Haze Haze  
Wind Chill: 32°   Ceiling: Unl
Heat Index: 32°   Visibility: 3mi
Dew Point: 32°   Wind: 0mph
Humidity: 99%   Direction: NA
Pressure: 30.17"   Gusts: NA
Location:  33.1762°N, 91.7595°W
Report Text: KBQP 211155Z AUTO 00000KT 3SM BR CLR 00/00 A3017 RMK AO2 T00010000 10034 20000
Loading
Personal Weather Stations






























Interactive Weather Map New forecast layout! Learn more

10-Day Weather Forecast

Advertisements
Track Severe Weather on mobile